createdAt,value
2023-02-23T00:02:06.116Z,25.50
2023-02-23T00:04:35.072Z,23.35
2023-02-23T00:07:02.878Z,22.60
2023-02-23T00:09:35.359Z,23.90
2023-02-23T00:12:08.112Z,25.23
2023-02-23T00:14:37.822Z,21.80
2023-02-23T00:17:10.848Z,21.75
2023-02-23T00:19:37.794Z,19.98
2023-02-23T00:22:04.767Z,21.30
2023-02-23T00:24:31.631Z,22.35
2023-02-23T00:26:58.549Z,21.95
2023-02-23T00:29:25.434Z,19.67
2023-02-23T00:31:53.178Z,22.92
2023-02-23T00:34:21.629Z,21.55
2023-02-23T00:36:56.528Z,19.88
2023-02-23T00:39:29.243Z,21.88
2023-02-23T00:44:29.584Z,25.75
2023-02-23T00:46:56.398Z,23.63
2023-02-23T00:49:23.553Z,21.55
2023-02-23T00:51:52.092Z,21.85
2023-02-23T00:54:21.822Z,23.30
2023-02-23T00:56:49.786Z,21.50
2023-02-23T00:59:16.841Z,25.33
2023-02-23T01:01:44.994Z,26.20
2023-02-23T01:04:13.219Z,22.42
2023-02-23T01:06:42.542Z,23.35
2023-02-23T01:09:21.925Z,21.98
2023-02-23T01:11:48.800Z,22.08
2023-02-23T01:14:15.649Z,20.42
2023-02-23T01:16:42.507Z,21.60
2023-02-23T01:19:11.083Z,20.20
2023-02-23T01:21:42.137Z,22.00
2023-02-23T01:24:10.180Z,20.77
2023-02-23T01:26:46.326Z,24.13
2023-02-23T01:29:17.281Z,19.83
2023-02-23T01:31:47.963Z,20.40
2023-02-23T01:34:15.684Z,20.83
2023-02-23T01:36:44.411Z,20.95
2023-02-23T01:39:16.182Z,21.73
2023-02-23T01:41:43.488Z,19.85
2023-02-23T01:44:13.448Z,23.17
2023-02-23T01:46:45.391Z,21.05
2023-02-23T01:49:20.142Z,21.00
2023-02-23T01:51:55.640Z,19.98
2023-02-23T01:54:31.090Z,21.70
2023-02-23T01:57:01.650Z,21.85
2023-02-23T01:59:39.653Z,22.70
2023-02-23T02:02:07.587Z,19.95
2023-02-23T02:04:47.762Z,21.95
2023-02-23T02:07:22.768Z,19.30
2023-02-23T02:10:10.731Z,21.58
2023-02-23T02:12:42.618Z,20.23
2023-02-23T02:15:17.209Z,21.58
2023-02-23T02:18:09.106Z,20.13
2023-02-23T02:21:19.002Z,19.42
2023-02-23T02:24:35.746Z,20.00
2023-02-23T02:27:34.163Z,18.17
2023-02-23T02:30:50.727Z,19.85
2023-02-23T02:34:11.819Z,18.73
2023-02-23T02:37:18.303Z,20.00
2023-02-23T02:40:18.111Z,19.88
2023-02-23T02:43:21.137Z,16.88
2023-02-23T02:46:14.268Z,16.63
2023-02-23T02:49:06.612Z,17.70
2023-02-23T02:52:06.517Z,19.13
2023-02-23T02:54:56.906Z,18.65
2023-02-23T02:57:28.658Z,19.55
2023-02-23T03:00:16.370Z,15.45
2023-02-23T03:03:01.931Z,16.25
2023-02-23T03:06:14.134Z,16.02
2023-02-23T03:10:02.448Z,16.55
2023-02-23T03:13:21.827Z,16.65
2023-02-23T03:16:31.712Z,15.98
2023-02-23T03:19:39.429Z,15.25
2023-02-23T03:22:53.537Z,14.32
2023-02-23T03:26:04.581Z,14.70
2023-02-23T03:29:01.460Z,15.13
2023-02-23T03:32:16.297Z,16.90
2023-02-23T03:35:42.997Z,14.93
2023-02-23T03:38:48.351Z,13.88
2023-02-23T03:41:38.976Z,16.00
2023-02-23T03:44:36.500Z,14.25
2023-02-23T03:47:25.569Z,13.95
2023-02-23T03:50:13.366Z,15.00
2023-02-23T03:53:12.850Z,15.48
2023-02-23T03:56:04.454Z,14.18
2023-02-23T03:59:07.638Z,16.60
2023-02-23T04:01:57.286Z,15.27
2023-02-23T04:04:46.048Z,16.50
2023-02-23T04:07:37.925Z,14.02
2023-02-23T04:10:26.379Z,15.07
2023-02-23T04:13:17.252Z,13.35
2023-02-23T04:16:01.814Z,14.90
2023-02-23T04:18:36.118Z,15.43
2023-02-23T04:21:04.983Z,14.15
2023-02-23T04:23:32.717Z,14.45
2023-02-23T04:25:59.791Z,13.43
2023-02-23T04:28:28.262Z,14.95
2023-02-23T04:30:55.270Z,15.95
2023-02-23T04:33:24.954Z,14.75
2023-02-23T04:35:54.410Z,16.67
2023-02-23T04:38:22.584Z,15.68
2023-02-23T04:40:49.872Z,15.40
2023-02-23T04:43:17.031Z,14.65
2023-02-23T04:45:45.227Z,14.35
2023-02-23T04:48:12.142Z,14.90
2023-02-23T04:50:39.611Z,16.33
2023-02-23T04:53:06.681Z,14.95
2023-02-23T04:55:33.879Z,15.45
2023-02-23T04:58:02.380Z,15.20
2023-02-23T05:00:30.432Z,15.85
2023-02-23T05:02:58.084Z,16.70
2023-02-23T05:05:25.587Z,14.68
2023-02-23T05:07:53.666Z,15.00
2023-02-23T05:10:20.715Z,16.08
2023-02-23T05:12:47.520Z,15.20
2023-02-23T05:15:17.928Z,15.30
2023-02-23T05:17:44.859Z,17.33
2023-02-23T05:20:14.476Z,16.10
2023-02-23T05:22:41.660Z,15.02
2023-02-23T05:25:10.094Z,18.02
2023-02-23T05:27:37.418Z,17.38
2023-02-23T05:30:07.747Z,15.88
2023-02-23T05:32:34.931Z,16.70
2023-02-23T05:35:02.599Z,17.38
2023-02-23T05:37:29.598Z,18.02
2023-02-23T05:39:56.417Z,15.82
2023-02-23T05:42:23.214Z,18.30
2023-02-23T05:44:50.096Z,17.95
2023-02-23T05:47:17.090Z,18.55
2023-02-23T05:49:46.114Z,16.98
2023-02-23T05:52:13.052Z,16.70
2023-02-23T05:54:39.876Z,18.83
2023-02-23T05:57:08.283Z,18.60
2023-02-23T05:59:35.112Z,20.67
2023-02-23T06:02:05.729Z,18.65
2023-02-23T06:04:33.174Z,17.38
2023-02-23T06:07:00.129Z,20.15
2023-02-23T06:09:27.171Z,21.30
2023-02-23T06:11:54.109Z,19.80
2023-02-23T06:14:21.035Z,19.70
2023-02-23T06:16:48.815Z,20.98
2023-02-23T06:19:15.841Z,20.20
2023-02-23T06:21:42.738Z,20.45
2023-02-23T06:24:09.727Z,22.05
2023-02-23T06:26:37.099Z,21.38
2023-02-23T06:29:05.201Z,21.38
2023-02-23T06:31:32.107Z,21.77
2023-02-23T06:33:58.982Z,21.17
2023-02-23T06:36:25.865Z,23.10
2023-02-23T06:39:00.866Z,21.30
2023-02-23T06:41:27.734Z,20.17
2023-02-23T06:43:54.577Z,23.05
2023-02-23T06:46:21.519Z,21.85
2023-02-23T06:48:48.458Z,21.10
2023-02-23T06:51:15.323Z,20.45
2023-02-23T06:53:42.165Z,22.17
2023-02-23T06:56:10.123Z,23.95
2023-02-23T06:58:38.475Z,21.55
2023-02-23T07:01:05.527Z,20.95
2023-02-23T07:03:32.768Z,23.00
2023-02-23T07:05:59.610Z,20.30
2023-02-23T07:08:26.529Z,20.95
2023-02-23T07:10:53.420Z,22.02
2023-02-23T07:13:21.936Z,23.02
2023-02-23T07:15:49.357Z,25.83
2023-02-23T07:18:16.357Z,23.95
2023-02-23T07:20:43.165Z,20.88
2023-02-23T07:23:10.042Z,22.40
2023-02-23T07:25:36.857Z,20.00
2023-02-23T07:28:03.778Z,21.65
2023-02-23T07:30:30.653Z,23.95
2023-02-23T07:32:57.460Z,23.27
2023-02-23T07:35:24.283Z,22.67
2023-02-23T07:37:51.157Z,22.63
2023-02-23T07:40:19.421Z,21.90
2023-02-23T07:42:46.256Z,23.88
2023-02-23T07:45:13.288Z,21.40
2023-02-23T07:47:40.325Z,21.90
2023-02-23T07:50:09.871Z,22.08
2023-02-23T07:52:38.371Z,24.10
2023-02-23T07:55:07.007Z,22.73
2023-02-23T07:57:34.771Z,23.90
2023-02-23T08:00:02.120Z,20.63
2023-02-23T08:02:29.168Z,23.77
2023-02-23T08:04:56.408Z,20.10
2023-02-23T08:07:24.523Z,22.35
2023-02-23T08:09:51.964Z,23.48
2023-02-23T08:12:19.038Z,25.40
2023-02-23T08:14:45.979Z,23.45
2023-02-23T08:17:13.032Z,28.05
2023-02-23T08:19:40.165Z,23.33
2023-02-23T08:22:09.920Z,24.80
2023-02-23T08:24:38.565Z,21.65
2023-02-23T08:27:05.583Z,24.52
2023-02-23T08:29:33.422Z,25.30
2023-02-23T08:32:04.004Z,24.42
2023-02-23T08:34:31.701Z,24.05
2023-02-23T08:36:58.699Z,22.48
2023-02-23T08:39:25.676Z,23.85
2023-02-23T08:41:55.610Z,23.85
2023-02-23T08:44:22.548Z,23.20
2023-02-23T08:46:49.381Z,21.00
2023-02-23T08:49:16.238Z,20.77
2023-02-23T08:51:43.144Z,24.35
2023-02-23T08:54:14.570Z,25.50
2023-02-23T08:56:42.389Z,24.65
2023-02-23T08:59:10.337Z,23.90
2023-02-23T09:01:37.625Z,24.60
2023-02-23T09:04:05.955Z,23.17
2023-02-23T09:06:35.259Z,23.48
2023-02-23T09:09:02.696Z,24.10
2023-02-23T09:11:29.525Z,25.20
2023-02-23T09:13:56.365Z,23.55
2023-02-23T09:16:23.233Z,25.27
2023-02-23T09:18:50.116Z,23.98
2023-02-23T09:21:25.264Z,22.63
2023-02-23T09:23:58.725Z,24.70
2023-02-23T09:26:28.449Z,25.10
2023-02-23T09:28:58.055Z,27.38
2023-02-23T09:31:25.161Z,23.58
2023-02-23T09:33:53.293Z,24.25
2023-02-23T09:36:25.235Z,25.67
2023-02-23T09:38:56.998Z,26.90
2023-02-23T09:41:30.233Z,26.73
2023-02-23T09:44:16.581Z,24.58
2023-02-23T09:47:11.426Z,23.10
2023-02-23T09:49:43.279Z,26.83
2023-02-23T09:52:30.343Z,30.42
2023-02-23T09:55:00.318Z,29.77
2023-02-23T09:57:41.896Z,30.08
2023-02-23T10:00:25.342Z,31.42
2023-02-23T10:03:07.038Z,32.33
2023-02-23T10:05:43.966Z,30.33
2023-02-23T10:08:30.531Z,26.88
2023-02-23T10:11:37.686Z,26.08
2023-02-23T10:14:20.629Z,31.52
2023-02-23T10:17:29.721Z,26.02
2023-02-23T10:20:16.633Z,27.55
2023-02-23T10:22:47.374Z,35.30
2023-02-23T10:25:25.474Z,32.63
2023-02-23T10:27:56.115Z,33.28
2023-02-23T10:30:33.589Z,27.33
2023-02-23T10:33:03.495Z,25.27
2023-02-23T10:35:32.115Z,26.65
2023-02-23T10:38:02.100Z,26.05
2023-02-23T10:40:33.754Z,25.88
2023-02-23T10:43:02.617Z,23.77
2023-02-23T10:45:37.389Z,26.05
2023-02-23T10:48:21.630Z,24.63
2023-02-23T10:50:53.906Z,24.77
2023-02-23T10:53:35.722Z,26.52
2023-02-23T10:56:17.592Z,24.17
2023-02-23T10:58:47.731Z,26.70
2023-02-23T11:01:49.102Z,27.58
2023-02-23T11:04:27.934Z,23.00
2023-02-23T11:07:18.519Z,24.40
2023-02-23T11:09:47.880Z,24.20
2023-02-23T11:12:22.067Z,25.08
2023-02-23T11:14:58.077Z,27.40
2023-02-23T11:17:28.976Z,26.58
2023-02-23T11:20:15.617Z,22.90
2023-02-23T11:22:42.975Z,25.27
2023-02-23T11:25:30.283Z,23.40
2023-02-23T11:27:58.854Z,24.30
2023-02-23T11:30:37.083Z,26.13
2023-02-23T11:33:12.193Z,24.98
2023-02-23T11:35:39.618Z,26.30
2023-02-23T11:38:21.137Z,27.70
2023-02-23T11:41:23.550Z,26.98
2023-02-23T11:44:04.294Z,26.25
2023-02-23T11:46:38.232Z,27.33
2023-02-23T11:49:14.614Z,24.30
2023-02-23T11:51:49.036Z,24.95
2023-02-23T11:54:33.265Z,25.80
2023-02-23T11:57:02.695Z,25.08
2023-02-23T11:59:41.208Z,25.60
2023-02-23T12:02:19.252Z,25.95
2023-02-23T12:04:47.729Z,27.52
2023-02-23T12:07:43.694Z,25.55
2023-02-23T12:10:37.959Z,25.05
2023-02-23T12:13:37.536Z,28.30
2023-02-23T12:16:28.282Z,27.20
2023-02-23T12:19:25.338Z,28.75
2023-02-23T12:22:15.547Z,27.58
2023-02-23T12:25:04.964Z,33.85
2023-02-23T12:27:58.264Z,31.75
2023-02-23T12:30:39.124Z,31.55
2023-02-23T12:33:21.614Z,33.42
2023-02-23T12:36:02.672Z,28.15
2023-02-23T12:39:04.541Z,27.73
2023-02-23T12:41:41.880Z,31.73
2023-02-23T12:44:31.563Z,28.10
2023-02-23T12:47:32.244Z,26.55
2023-02-23T12:50:28.612Z,29.27
2023-02-23T12:53:06.936Z,31.35
2023-02-23T12:56:05.036Z,30.50
2023-02-23T12:59:14.336Z,24.58
2023-02-23T13:02:02.535Z,31.80
2023-02-23T13:05:13.049Z,29.70
2023-02-23T13:07:59.251Z,26.88
2023-02-23T13:10:49.853Z,28.92
2023-02-23T13:13:49.606Z,27.10
2023-02-23T13:16:36.438Z,30.48
2023-02-23T13:19:19.482Z,28.05
2023-02-23T13:21:53.838Z,27.33
2023-02-23T13:24:36.495Z,25.80
2023-02-23T13:27:26.491Z,26.55
2023-02-23T13:29:56.750Z,28.75
2023-02-23T13:32:36.256Z,29.50
2023-02-23T13:35:08.357Z,29.77
2023-02-23T13:38:03.470Z,30.23
2023-02-23T13:40:45.165Z,29.23
2023-02-23T13:43:42.942Z,30.35
2023-02-23T13:46:37.329Z,29.27
2023-02-23T13:49:32.827Z,28.67
2023-02-23T13:52:15.779Z,31.92
2023-02-23T13:54:58.703Z,30.40
2023-02-23T13:57:28.613Z,28.90
2023-02-23T13:59:55.706Z,30.50
2023-02-23T14:02:28.697Z,28.88
2023-02-23T14:07:41.548Z,31.92
2023-02-23T14:10:30.334Z,31.63
2023-02-23T14:13:04.513Z,29.55
2023-02-23T14:15:40.295Z,34.88
2023-02-23T14:18:19.041Z,30.02
2023-02-23T14:20:51.376Z,33.38
2023-02-23T14:23:21.264Z,34.63
2023-02-23T14:25:52.750Z,32.15
2023-02-23T14:28:34.358Z,33.95
2023-02-23T14:31:13.378Z,34.90
2023-02-23T14:33:43.177Z,33.13
2023-02-23T14:47:28.423Z,32.08
2023-02-23T14:50:00.632Z,33.85
2023-02-23T14:52:33.309Z,34.80
2023-02-23T14:55:29.579Z,35.65
2023-02-23T14:57:58.407Z,33.30
2023-02-23T15:00:32.679Z,32.50
2023-02-23T15:03:12.523Z,34.38
2023-02-23T15:05:53.707Z,32.63
2023-02-23T15:08:28.276Z,32.65
2023-02-23T15:11:12.366Z,31.48
2023-02-23T15:13:50.007Z,29.52
2023-02-23T15:16:31.854Z,35.65
2023-02-23T15:19:01.768Z,37.13
2023-02-23T15:21:29.085Z,33.35
2023-02-23T15:24:12.019Z,33.92
2023-02-23T15:26:41.604Z,34.42
2023-02-23T15:29:13.650Z,34.58
2023-02-23T15:31:50.487Z,32.97
2023-02-23T15:34:24.895Z,37.10
2023-02-23T15:36:58.947Z,43.70
2023-02-23T15:39:58.867Z,43.58
2023-02-23T15:56:30.220Z,45.03
2023-02-23T15:59:05.480Z,37.55
2023-02-23T16:01:32.959Z,67.60
2023-02-23T16:04:17.918Z,65.90
2023-02-23T16:07:08.258Z,114.97
2023-02-23T16:09:39.320Z,112.90
2023-02-23T16:12:16.348Z,76.38
2023-02-23T16:15:00.418Z,100.85
2023-02-23T16:17:32.872Z,73.53
2023-02-23T16:20:55.821Z,107.28
2023-02-23T16:23:37.539Z,74.53
2023-02-23T16:26:24.682Z,58.53
2023-02-23T16:29:00.619Z,46.80
2023-02-23T16:32:01.708Z,54.83
2023-02-23T16:34:48.231Z,44.30
2023-02-23T16:37:26.202Z,42.13
2023-02-23T16:39:53.793Z,41.60
2023-02-23T16:42:31.255Z,57.30
2023-02-23T16:44:59.933Z,45.00
2023-02-23T16:47:49.841Z,48.65
2023-02-23T16:50:24.512Z,40.67
2023-02-23T16:52:55.268Z,40.53
2023-02-23T16:55:28.330Z,39.95
2023-02-23T16:58:00.394Z,39.22
2023-02-23T17:00:31.825Z,33.50
2023-02-23T17:03:00.713Z,38.08
2023-02-23T17:05:30.452Z,54.88
2023-02-23T17:07:59.066Z,44.35
2023-02-23T17:10:34.698Z,51.45
2023-02-23T17:13:07.925Z,54.58
2023-02-23T17:15:42.435Z,57.47
2023-02-23T17:18:09.808Z,54.67
2023-02-23T17:20:36.700Z,52.50
2023-02-23T17:23:04.242Z,43.85
2023-02-23T17:25:31.555Z,41.05
2023-02-23T17:27:59.907Z,44.78
2023-02-23T17:30:28.457Z,49.13
2023-02-23T17:32:58.605Z,52.50
2023-02-23T17:35:26.936Z,62.45
2023-02-23T17:37:54.554Z,57.83
2023-02-23T17:40:28.933Z,62.88
2023-02-23T17:42:59.591Z,57.50
2023-02-23T17:45:28.466Z,52.20
2023-02-23T17:47:57.234Z,50.33
2023-02-23T17:50:27.198Z,47.47
2023-02-23T17:52:54.791Z,52.80
2023-02-23T17:55:24.192Z,56.33
2023-02-23T17:57:52.553Z,50.40
2023-02-23T18:00:20.955Z,51.13
2023-02-23T18:02:48.487Z,51.97
2023-02-23T18:05:16.043Z,49.35
2023-02-23T18:07:43.401Z,48.15
2023-02-23T18:10:13.432Z,49.88
2023-02-23T18:12:41.563Z,53.33
2023-02-23T18:15:09.285Z,43.33
2023-02-23T18:17:37.339Z,42.40
2023-02-23T18:20:08.892Z,45.63
2023-02-23T18:22:36.002Z,51.85
2023-02-23T18:25:03.292Z,50.95
2023-02-23T18:27:30.326Z,55.42
2023-02-23T18:29:57.257Z,48.83
2023-02-23T18:32:24.552Z,41.80
2023-02-23T18:34:51.783Z,48.13
2023-02-23T18:37:25.306Z,56.30
2023-02-23T18:39:54.461Z,59.00
2023-02-23T18:42:21.503Z,66.75
2023-02-23T18:44:48.569Z,64.38
2023-02-23T18:47:15.670Z,63.50
2023-02-23T18:49:43.234Z,55.65
2023-02-23T18:52:10.569Z,55.42
2023-02-23T18:54:39.863Z,65.60
2023-02-23T18:57:07.149Z,59.75
2023-02-23T18:59:34.643Z,55.75
2023-02-23T19:02:01.875Z,53.78
2023-02-23T19:04:29.017Z,56.40
2023-02-23T19:06:56.245Z,47.40
2023-02-23T19:09:24.662Z,49.42
2023-02-23T19:11:53.513Z,48.40
2023-02-23T19:14:32.945Z,43.80
2023-02-23T19:17:08.981Z,51.20
2023-02-23T19:19:38.952Z,51.75
2023-02-23T19:22:07.993Z,51.00
2023-02-23T19:24:38.481Z,57.33
2023-02-23T19:27:06.499Z,86.03
2023-02-23T19:29:34.543Z,52.42
2023-02-23T19:32:03.519Z,51.03
2023-02-23T19:34:32.814Z,60.63
2023-02-23T19:37:01.263Z,85.15
2023-02-23T19:39:30.317Z,61.25
2023-02-23T19:41:58.922Z,66.25
2023-02-23T19:44:27.829Z,59.63
2023-02-23T19:46:57.144Z,57.58
2023-02-23T19:49:25.809Z,57.78
2023-02-23T19:51:53.088Z,56.65
2023-02-23T19:54:21.118Z,57.75
2023-02-23T19:56:52.724Z,59.75
2023-02-23T19:59:20.816Z,69.85
2023-02-23T20:01:52.141Z,61.30
2023-02-23T20:04:19.722Z,78.47
2023-02-23T20:06:49.530Z,102.03
2023-02-23T20:09:18.123Z,73.20
2023-02-23T20:11:47.066Z,64.30
2023-02-23T20:14:17.690Z,55.72
2023-02-23T20:16:45.803Z,71.90
2023-02-23T20:19:13.603Z,78.75
2023-02-23T20:21:42.269Z,71.35
2023-02-23T20:24:11.065Z,70.90
2023-02-23T20:26:39.636Z,62.55
2023-02-23T20:29:18.052Z,61.53
2023-02-23T20:31:53.977Z,64.40
2023-02-23T20:34:24.886Z,61.15
2023-02-23T20:36:53.920Z,61.78
2023-02-23T20:39:24.559Z,70.38
2023-02-23T20:41:53.828Z,73.57
2023-02-23T20:44:24.531Z,77.80
2023-02-23T20:46:51.704Z,77.68
2023-02-23T20:49:20.063Z,81.90
2023-02-23T20:51:48.612Z,86.25
2023-02-23T20:54:17.402Z,87.75
2023-02-23T20:56:45.078Z,88.30
2023-02-23T20:59:13.767Z,66.90
2023-02-23T21:01:42.752Z,66.03
2023-02-23T21:04:09.874Z,72.70
2023-02-23T21:06:36.879Z,73.32
2023-02-23T21:09:12.524Z,69.47
2023-02-23T21:11:39.344Z,62.45
2023-02-23T21:14:08.341Z,62.33
2023-02-23T21:16:38.738Z,60.63
2023-02-23T21:19:05.718Z,71.88
2023-02-23T21:21:45.774Z,80.18
2023-02-23T21:24:15.084Z,67.53
2023-02-23T21:26:42.858Z,59.33
2023-02-23T21:29:16.379Z,72.22
2023-02-23T21:31:46.320Z,53.95
2023-02-23T21:34:18.822Z,55.10
2023-02-23T21:36:46.612Z,56.55
2023-02-23T21:39:13.811Z,51.38
2023-02-23T21:41:40.772Z,56.70
2023-02-23T21:44:09.179Z,108.65
2023-02-23T21:46:36.242Z,61.67
2023-02-23T21:49:07.290Z,58.83
2023-02-23T21:51:34.656Z,57.75
2023-02-23T21:54:01.911Z,55.33
2023-02-23T21:56:29.616Z,54.50
2023-02-23T21:58:57.090Z,50.83
2023-02-23T22:01:31.146Z,52.40
2023-02-23T22:03:58.304Z,55.65
2023-02-23T22:06:35.986Z,57.95
2023-02-23T22:09:04.313Z,55.60
2023-02-23T22:11:31.581Z,56.83
2023-02-23T22:14:00.114Z,58.42
2023-02-23T22:16:35.814Z,59.10
2023-02-23T22:19:04.287Z,57.05
2023-02-23T22:21:37.656Z,60.78
2023-02-23T22:24:05.761Z,63.80
2023-02-23T22:26:39.273Z,61.85
2023-02-23T22:29:09.943Z,62.83
2023-02-23T22:31:40.032Z,60.53
2023-02-23T22:34:07.283Z,64.82
2023-02-23T22:36:34.941Z,61.97
2023-02-23T22:39:03.877Z,57.03
2023-02-23T22:41:30.793Z,69.35
2023-02-23T22:43:58.393Z,68.72
2023-02-23T22:46:26.216Z,67.68
2023-02-23T22:48:53.462Z,65.68
2023-02-23T22:51:21.068Z,65.43
2023-02-23T22:53:48.183Z,65.78
2023-02-23T22:56:15.061Z,65.97
2023-02-23T22:58:42.352Z,67.93
2023-02-23T23:01:12.107Z,69.22
2023-02-23T23:03:48.235Z,70.60
2023-02-23T23:06:22.111Z,65.10
2023-02-23T23:08:55.617Z,73.97
2023-02-23T23:11:28.107Z,75.80
2023-02-23T23:14:02.772Z,68.95
2023-02-23T23:30:47.179Z,73.53
2023-02-23T23:33:14.318Z,69.35
2023-02-23T23:35:42.778Z,69.82
2023-02-23T23:38:09.877Z,67.07
2023-02-23T23:40:37.696Z,67.22
2023-02-23T23:43:07.855Z,68.97
2023-02-23T23:45:38.238Z,65.75
2023-02-23T23:48:09.485Z,67.63
2023-02-23T23:50:39.521Z,66.75
2023-02-23T23:53:07.668Z,66.18
2023-02-23T23:55:34.779Z,75.20
2023-02-23T23:58:01.844Z,68.15
